Time;durP1;ratioP1;P1;durP2;ratioP2;P2;SDS_P1;SDS_P2;PMS_P1;PMS_P2;Temp;Humidity;BMP_temperature;BMP_pressure;BME280_temperature;BME280_humidity;BME280_pressure;Samples;Min_cycle;Max_cycle;Signal;HPM_P1;HPM_P2
2023/03/16 00:02:23;;;;;;;;;4.00;4.00;;;;;11.47;49.72;101224.88;6276992;22;45431;-81
2023/03/16 00:04:48;;;;;;;;;4.00;4.00;;;;;11.55;49.75;101229.16;6275463;22;48013;-81
2023/03/16 00:07:15;;;;;;;;;4.00;4.00;;;;;11.53;49.66;101223.84;6277245;22;45190;-81
2023/03/16 00:09:40;;;;;;;;;6.00;4.00;;;;;11.52;49.67;101223.88;6277682;22;45257;-81
2023/03/16 00:12:14;;;;;;;;;4.00;4.00;;;;;11.49;49.78;101211.47;6277218;22;45391;-81
2023/03/16 00:14:40;;;;;;;;;6.50;4.50;;;;;11.44;49.35;101216.97;6276134;22;46012;-81
2023/03/16 00:17:05;;;;;;;;;4.75;3.50;;;;;11.37;49.54;101203.81;6277042;22;45220;-81
2023/03/16 00:19:34;;;;;;;;;4.25;4.25;;;;;11.46;49.80;101215.13;6276864;22;45199;-81
2023/03/16 00:21:59;;;;;;;;;5.00;5.00;;;;;11.47;49.62;101219.53;6276923;22;45425;-81
2023/03/16 00:24:25;;;;;;;;;4.25;3.75;;;;;11.38;49.47;101201.09;6277115;22;45472;-81
2023/03/16 00:26:53;;;;;;;;;3.75;3.75;;;;;11.40;49.96;101198.38;6277198;22;45319;-81
2023/03/16 00:29:21;;;;;;;;;9.25;6.00;;;;;11.43;49.60;101209.00;6249798;22;45313;-81
2023/03/16 00:31:47;;;;;;;;;4.00;4.00;;;;;11.46;49.51;101208.88;6276880;22;45267;-81
2023/03/16 00:34:12;;;;;;;;;4.75;4.75;;;;;11.38;49.64;101194.88;6276911;22;46398;-81
2023/03/16 00:36:38;;;;;;;;;6.75;4.25;;;;;11.32;49.93;101190.56;6277256;22;45255;-81
2023/03/16 00:39:06;;;;;;;;;6.50;5.00;;;;;11.40;49.89;101203.72;6277484;22;45271;-81
2023/03/16 00:41:36;;;;;;;;;5.75;4.00;;;;;11.41;49.77;101203.69;6276799;22;45412;-81
2023/03/16 00:44:05;;;;;;;;;4.00;4.00;;;;;11.38;49.93;101195.75;6276981;22;45610;-81
2023/03/16 00:46:31;;;;;;;;;7.50;5.75;;;;;11.36;49.69;101188.69;6277532;22;45330;-81
2023/03/16 00:48:56;;;;;;;;;5.00;4.00;;;;;11.37;50.11;101195.78;6249538;22;45521;-81
2023/03/16 00:51:21;;;;;;;;;5.50;5.00;;;;;11.32;50.20;101190.56;6275987;22;50574;-81
2023/03/16 00:53:47;;;;;;;;;5.50;5.00;;;;;11.19;50.37;101163.28;6276799;22;45303;-81
2023/03/16 00:56:13;;;;;;;;;5.75;5.75;;;;;11.23;49.65;101161.44;6276882;22;45181;-81
2023/03/16 00:58:41;;;;;;;;;7.75;6.75;;;;;11.24;50.00;101169.41;6276949;22;45215;-81
2023/03/16 01:01:19;;;;;;;;;5.50;4.75;;;;;11.19;49.81;101168.66;6277087;22;45357;-81
2023/03/16 01:03:44;;;;;;;;;10.00;8.00;;;;;11.16;50.19;101174.09;6277033;22;45278;-81
2023/03/16 01:06:13;;;;;;;;;5.50;5.00;;;;;11.19;50.33;101189.16;6277250;22;45251;-81
2023/03/16 01:08:40;;;;;;;;;8.25;5.25;;;;;11.06;50.31;101165.47;6277395;22;45385;-81
2023/03/16 01:11:12;;;;;;;;;5.50;5.50;;;;;11.07;50.57;101169.00;6276572;22;45214;-81
2023/03/16 01:13:38;;;;;;;;;5.00;5.00;;;;;11.16;50.90;101181.22;6276242;22;45321;-81
2023/03/16 01:16:04;;;;;;;;;4.75;4.75;;;;;11.02;50.81;101173.59;6249749;22;45748;-81
2023/03/16 01:18:33;;;;;;;;;8.75;7.75;;;;;11.08;50.18;101187.66;6275368;22;45155;-81
2023/03/16 01:21:00;;;;;;;;;5.50;4.75;;;;;11.11;50.66;101186.72;6276856;22;45272;-81
2023/03/16 01:23:29;;;;;;;;;6.00;6.00;;;;;11.05;50.37;101165.50;6276589;22;45319;-81
2023/03/16 01:25:54;;;;;;;;;4.50;4.50;;;;;11.04;50.46;101134.34;6276213;22;45408;-81
2023/03/16 01:28:23;;;;;;;;;6.00;5.50;;;;;11.05;50.02;101133.44;6276734;22;45490;-81
2023/03/16 01:30:52;;;;;;;;;6.75;4.75;;;;;11.03;50.25;101138.81;6276756;22;45394;-81
2023/03/16 01:33:18;;;;;;;;;8.00;5.50;;;;;10.95;50.51;101135.50;6276643;22;45921;-81
2023/03/16 01:35:52;;;;;;;;;6.25;4.00;;;;;10.83;50.25;101115.34;6274876;22;45301;-81
2023/03/16 01:38:17;;;;;;;;;7.25;6.00;;;;;10.97;50.52;101144.31;6276915;22;45369;-81
2023/03/16 01:40:43;;;;;;;;;10.50;6.75;;;;;10.91;50.64;101131.16;6276910;22;45228;-81
2023/03/16 01:43:10;;;;;;;;;7.00;5.75;;;;;10.93;50.73;101137.34;6276203;22;45175;-81
2023/03/16 01:46:08;;;;;;;;;4.00;4.00;;;;;10.92;50.38;101130.22;6276432;22;45176;-81
2023/03/16 01:48:41;;;;;;;;;4.50;4.50;;;;;10.88;50.89;101125.91;6276636;22;45248;-81
2023/03/16 01:51:10;;;;;;;;;8.00;7.75;;;;;10.87;51.03;101122.34;6248814;22;45445;-81
2023/03/16 01:53:38;;;;;;;;;6.00;6.00;;;;;10.77;50.23;101107.50;6276651;22;45524;-81
2023/03/16 01:56:09;;;;;;;;;9.00;8.00;;;;;10.81;50.50;101122.53;6276359;22;45230;-82
2023/03/16 01:58:36;;;;;;;;;7.50;6.50;;;;;10.86;50.54;101130.38;6248872;22;45357;-81
2023/03/16 02:01:03;;;;;;;;;6.00;5.00;;;;;10.88;50.57;101123.22;6276733;22;45199;-81
2023/03/16 02:03:33;;;;;;;;;7.00;7.00;;;;;10.74;51.00;101100.44;6248898;22;47049;-81
2023/03/16 02:06:05;;;;;;;;;7.25;6.25;;;;;10.88;51.15;101116.09;6276025;22;45222;-81
2023/03/16 02:08:30;;;;;;;;;7.25;5.75;;;;;10.79;50.61;101096.75;6276313;22;45234;-81
2023/03/16 02:10:56;;;;;;;;;5.50;5.50;;;;;10.80;50.84;101101.19;6276014;22;45174;-81
2023/03/16 02:13:23;;;;;;;;;5.75;4.00;;;;;10.82;50.63;101100.22;6247955;22;48004;-81
2023/03/16 02:15:48;;;;;;;;;8.00;5.00;;;;;10.74;50.59;101091.53;6276580;22;45326;-81
2023/03/16 02:18:13;;;;;;;;;7.00;6.25;;;;;10.80;50.41;101103.88;6273472;22;45369;-81
2023/03/16 02:20:50;;;;;;;;;5.00;5.00;;;;;10.74;50.76;101091.53;6276253;22;46236;-81
2023/03/16 02:23:19;;;;;;;;;5.75;5.00;;;;;10.76;51.01;101095.06;6276527;22;45298;-81
2023/03/16 02:26:22;;;;;;;;;8.50;5.25;;;;;10.65;50.73;101074.00;6276195;22;45685;-81
2023/03/16 02:29:14;;;;;;;;;6.25;5.00;;;;;10.74;50.27;101099.56;6264540;22;45487;-81
2023/03/16 02:31:40;;;;;;;;;6.25;4.00;;;;;10.71;50.31;101092.53;6275516;22;45343;-81
2023/03/16 02:34:06;;;;;;;;;5.00;5.00;;;;;10.73;50.64;101098.69;6275717;22;45210;-81
2023/03/16 02:36:33;;;;;;;;;8.25;4.50;;;;;10.53;50.93;101058.31;6276221;22;45412;-81
2023/03/16 02:38:58;;;;;;;;;6.25;4.00;;;;;10.63;50.40;101083.84;6278106;22;45273;-82
2023/03/16 02:41:24;;;;;;;;;3.00;3.00;;;;;10.66;50.79;101083.75;6276289;22;48948;-81
2023/03/16 02:43:54;;;;;;;;;6.25;5.00;;;;;10.67;49.42;101087.31;6250013;22;47606;-81
2023/03/16 02:46:22;;;;;;;;;5.00;5.00;;;;;10.64;50.39;101082.94;6277871;22;45255;-81
2023/03/16 02:48:53;;;;;;;;;4.00;4.00;;;;;10.63;50.12;101080.31;6276170;22;45589;-81
2023/03/16 02:51:19;;;;;;;;;4.25;4.00;;;;;10.59;49.98;101079.47;6277133;22;45438;-81
2023/03/16 02:53:44;;;;;;;;;5.50;4.00;;;;;10.54;50.12;101066.28;6250127;22;47520;-81
2023/03/16 02:56:10;;;;;;;;;5.50;4.00;;;;;10.55;49.95;101054.66;6277868;22;49727;-81
2023/03/16 02:58:35;;;;;;;;;4.00;3.25;;;;;10.53;50.19;101061.84;6277556;22;45261;-81
2023/03/16 03:01:01;;;;;;;;;3.00;3.00;;;;;10.48;49.76;101052.22;6276483;22;45391;-81
2023/03/16 03:03:26;;;;;;;;;5.00;4.75;;;;;10.43;50.40;101036.34;6278055;22;46135;-81
2023/03/16 03:05:51;;;;;;;;;5.00;5.00;;;;;10.42;50.10;101031.03;6249774;22;45226;-81
2023/03/16 03:08:19;;;;;;;;;5.25;3.75;;;;;10.45;50.45;101045.16;6278077;22;45284;-81
2023/03/16 03:10:44;;;;;;;;;4.00;4.00;;;;;10.27;50.43;101017.16;6276569;22;45311;-81
2023/03/16 03:13:11;;;;;;;;;5.25;5.00;;;;;10.46;50.07;101046.94;6277403;22;45208;-81
2023/03/16 03:15:36;;;;;;;;;4.00;3.00;;;;;10.35;50.29;101028.53;6249652;22;45755;-81
2023/03/16 03:18:02;;;;;;;;;1.25;1.00;;;;;10.38;50.28;101031.13;6276738;22;45419;-81
2023/03/16 03:20:28;;;;;;;;;3.50;3.50;;;;;10.25;50.66;101013.66;6277823;22;45149;-81
2023/03/16 03:22:53;;;;;;;;;5.25;4.00;;;;;10.31;50.37;101024.16;6277458;22;45253;-81
2023/03/16 03:25:20;;;;;;;;;3.75;3.75;;;;;10.30;50.12;101030.41;6276223;22;50108;-81
2023/03/16 03:27:47;;;;;;;;;7.00;4.00;;;;;10.35;50.51;101041.88;6277720;22;45263;-81
2023/03/16 03:30:16;;;;;;;;;7.50;7.00;;;;;10.35;49.88;101041.88;6277735;22;45195;-81
2023/03/16 03:32:42;;;;;;;;;6.50;4.50;;;;;10.22;50.67;101037.75;6277347;22;46420;-81
2023/03/16 03:35:11;;;;;;;;;6.00;5.00;;;;;10.31;50.58;101044.66;6277120;22;45269;-81
2023/03/16 03:37:37;;;;;;;;;5.00;4.00;;;;;10.30;50.71;101042.88;6277675;22;45262;-81
2023/03/16 03:40:10;;;;;;;;;4.75;4.75;;;;;10.27;50.66;101038.50;6277548;22;45405;-81
2023/03/16 03:42:36;;;;;;;;;4.75;4.00;;;;;10.17;50.54;101026.31;6249035;22;47457;-81
2023/03/16 03:45:01;;;;;;;;;6.75;4.75;;;;;10.26;50.34;101025.22;6277066;22;45254;-82
2023/03/16 03:47:27;;;;;;;;;4.00;4.00;;;;;10.25;50.17;101031.47;6277811;22;45846;-81
2023/03/16 03:49:52;;;;;;;;;8.00;3.25;;;;;10.17;50.18;101027.22;6250535;22;45213;-78
2023/03/16 03:52:17;;;;;;;;;7.75;4.25;;;;;10.17;50.59;101027.22;6277457;22;45316;-77
2023/03/16 03:54:43;;;;;;;;;5.75;4.50;;;;;10.20;50.17;101028.91;6275444;22;49700;-77
2023/03/16 03:57:08;;;;;;;;;3.25;3.25;;;;;10.16;50.27;101025.44;6277869;22;45554;-78
2023/03/16 03:59:34;;;;;;;;;3.50;1.50;;;;;10.15;50.30;101026.34;6277686;22;45561;-77
2023/03/16 04:01:59;;;;;;;;;3.75;3.00;;;;;10.11;50.68;101021.16;6277518;22;45336;-77
2023/03/16 04:04:25;;;;;;;;;7.00;4.00;;;;;10.10;50.53;101014.06;6277388;22;45187;-77
2023/03/16 04:06:50;;;;;;;;;3.00;2.50;;;;;10.16;50.57;101019.25;6249367;22;45227;-77
2023/03/16 04:09:16;;;;;;;;;5.00;5.00;;;;;10.15;50.50;101007.69;6276869;22;45275;-77
2023/03/16 04:11:41;;;;;;;;;2.50;2.50;;;;;10.00;50.07;100986.75;6249265;22;47907;-77
2023/03/16 04:14:07;;;;;;;;;2.75;2.75;;;;;9.95;50.44;100976.19;6275310;22;45935;-78
2023/03/16 04:16:32;;;;;;;;;5.75;4.50;;;;;10.04;50.02;100995.53;6277260;22;45280;-77
2023/03/16 04:18:58;;;;;;;;;5.75;3.75;;;;;9.97;50.36;100984.16;6277380;22;45131;-77
2023/03/16 04:21:23;;;;;;;;;3.00;3.00;;;;;10.05;50.14;101002.63;6277391;22;46135;-77
2023/03/16 04:23:53;;;;;;;;;7.00;3.50;;;;;9.93;50.51;100978.03;6277866;22;45546;-77
2023/03/16 04:26:21;;;;;;;;;3.00;3.00;;;;;10.04;50.49;100995.53;6277194;22;45278;-77
2023/03/16 04:28:47;;;;;;;;;4.50;4.00;;;;;10.02;50.68;100996.47;6249362;22;45280;-77
2023/03/16 04:31:12;;;;;;;;;3.25;3.25;;;;;10.01;50.53;100991.19;6249339;22;47896;-77
2023/03/16 04:33:39;;;;;;;;;4.50;3.25;;;;;10.00;50.61;100979.63;6277324;22;45354;-77
2023/03/16 04:36:06;;;;;;;;;4.50;2.00;;;;;9.98;50.16;100976.13;6277100;22;45259;-77
2023/03/16 04:38:32;;;;;;;;;4.00;4.00;;;;;9.95;50.58;100978.84;6276920;22;45362;-77
2023/03/16 04:40:58;;;;;;;;;3.00;3.00;;;;;9.83;50.56;100957.84;6277667;22;46014;-77
2023/03/16 04:43:24;;;;;;;;;3.00;2.00;;;;;9.95;50.03;100978.00;6277231;22;45717;-77
2023/03/16 04:45:49;;;;;;;;;3.00;3.00;;;;;9.75;50.23;100950.03;6249212;22;45195;-77
2023/03/16 04:48:15;;;;;;;;;3.25;3.00;;;;;9.94;50.45;100978.91;6277286;22;45340;-77
2023/03/16 04:50:40;;;;;;;;;3.50;3.50;;;;;9.93;50.14;100967.38;6277343;22;49594;-78
2023/03/16 04:53:05;;;;;;;;;4.00;4.00;;;;;9.91;50.34;100963.88;6277107;22;45231;-77
2023/03/16 04:55:31;;;;;;;;;3.25;3.25;;;;;9.75;50.35;100946.50;6274697;22;45579;-78
2023/03/16 04:57:57;;;;;;;;;8.25;3.75;;;;;9.73;50.59;100945.69;6276382;22;45215;-78
2023/03/16 05:00:22;;;;;;;;;3.00;3.00;;;;;9.80;50.10;100964.13;6276586;22;45250;-77
2023/03/16 05:02:50;;;;;;;;;3.50;3.50;;;;;9.87;50.37;100967.50;6249800;22;45226;-77
2023/03/16 05:05:16;;;;;;;;;3.25;2.00;;;;;9.84;50.58;100964.97;6276811;22;45247;-77
2023/03/16 05:07:42;;;;;;;;;5.00;5.00;;;;;9.74;50.17;100947.41;6249232;22;45233;-77
2023/03/16 05:10:10;;;;;;;;;2.00;2.00;;;;;9.80;50.09;100961.47;6276844;22;45393;-77
2023/03/16 05:12:35;;;;;;;;;3.00;3.00;;;;;9.65;49.95;100940.53;6277052;22;45511;-77
2023/03/16 05:15:00;;;;;;;;;4.75;3.00;;;;;9.72;50.24;100958.16;6276096;22;45156;-77
2023/03/16 05:17:26;;;;;;;;;4.25;2.25;;;;;9.77;50.19;100958.91;6276930;22;45445;-77
2023/03/16 05:19:51;;;;;;;;;2.00;2.00;;;;;9.74;50.29;100942.97;6276954;22;46127;-77
2023/03/16 05:22:17;;;;;;;;;3.50;3.00;;;;;9.77;50.60;100947.34;6277325;22;45372;-77
2023/03/16 05:24:42;;;;;;;;;1.00;1.00;;;;;9.73;50.86;100935.03;6277329;22;45294;-78
2023/03/16 05:27:07;;;;;;;;;3.25;3.00;;;;;9.72;50.18;100944.81;6276942;22;45177;-77
2023/03/16 05:29:33;;;;;;;;;4.25;3.00;;;;;9.68;50.47;100939.59;6276400;22;45507;-77
2023/03/16 05:31:58;;;;;;;;;3.00;2.00;;;;;9.63;50.76;100937.91;6277450;22;45255;-78
2023/03/16 05:34:24;;;;;;;;;4.00;4.00;;;;;9.69;50.69;100949.31;6276685;22;45294;-78
2023/03/16 05:36:50;;;;;;;;;4.00;4.00;;;;;9.66;50.53;100939.63;6277224;22;45359;-77
2023/03/16 05:39:15;;;;;;;;;5.00;5.00;;;;;9.57;50.82;100930.09;6276262;22;45377;-77
2023/03/16 05:41:41;;;;;;;;;2.00;2.00;;;;;9.72;50.75;100950.16;6275325;22;45360;-77
2023/03/16 05:44:06;;;;;;;;;4.00;4.00;;;;;9.72;50.60;100947.50;6275757;22;45192;-77
2023/03/16 05:46:32;;;;;;;;;4.50;2.25;;;;;9.66;50.91;100934.31;6275373;22;45618;-77
2023/03/16 05:48:57;;;;;;;;;3.00;3.00;;;;;9.63;50.65;100931.72;6276749;22;45384;-77
2023/03/16 05:51:25;;;;;;;;;4.25;3.25;;;;;9.70;50.65;100943.09;6276868;22;45259;-77
2023/03/16 05:53:55;;;;;;;;;4.00;3.00;;;;;9.68;50.54;100940.47;6276559;22;45164;-77
2023/03/16 05:56:24;;;;;;;;;3.00;2.00;;;;;9.72;50.75;100950.16;6276945;22;45328;-77
2023/03/16 05:58:51;;;;;;;;;3.25;3.00;;;;;9.63;50.65;100934.38;6248681;22;48331;-77
2023/03/16 06:01:18;;;;;;;;;3.75;2.50;;;;;9.69;50.29;100944.00;6249599;22;45307;-77
2023/03/16 06:03:44;;;;;;;;;3.00;3.00;;;;;9.68;50.43;100945.78;6249190;22;45385;-77
2023/03/16 06:06:09;;;;;;;;;3.75;2.75;;;;;9.67;50.12;100941.38;6277139;22;45474;-78
2023/03/16 06:08:35;;;;;;;;;3.25;3.25;;;;;9.61;49.87;100939.75;6249323;22;48094;-77
2023/03/16 06:11:00;;;;;;;;;3.00;2.00;;;;;9.52;50.25;100932.00;6277423;22;49817;-77
2023/03/16 06:13:25;;;;;;;;;3.25;3.00;;;;;9.53;50.05;100930.19;6278299;22;45154;-77
2023/03/16 06:15:51;;;;;;;;;4.00;3.00;;;;;9.59;50.61;100943.38;6249782;22;45864;-77
2023/03/16 06:18:16;;;;;;;;;2.00;2.00;;;;;9.58;50.64;100936.28;6277948;22;45211;-77
2023/03/16 06:20:42;;;;;;;;;3.50;3.00;;;;;9.56;50.71;100940.78;6278484;22;45508;-77
2023/03/16 06:23:07;;;;;;;;;1.75;1.75;;;;;9.61;50.35;100941.53;6278150;22;45156;-77
2023/03/16 06:25:33;;;;;;;;;2.00;2.00;;;;;9.61;50.35;100942.41;6278507;22;45416;-77
2023/03/16 06:27:58;;;;;;;;;1.25;1.25;;;;;9.61;50.05;100949.53;6250930;22;47458;-77
2023/03/16 06:30:23;;;;;;;;;2.25;2.25;;;;;9.58;49.95;100945.16;6277207;22;51102;-77
2023/03/16 06:32:49;;;;;;;;;3.50;2.75;;;;;9.54;50.30;100940.81;6276343;22;45246;-77
2023/03/16 06:35:14;;;;;;;;;4.50;3.00;;;;;9.36;50.27;100906.66;6278127;22;45186;-80
2023/03/16 06:37:40;;;;;;;;;2.25;2.25;;;;;9.62;50.41;100946.84;6249162;22;47277;-78
2023/03/16 06:40:06;;;;;;;;;7.00;4.00;;;;;9.60;50.53;100942.44;6277937;22;45175;-78
2023/03/16 06:42:32;;;;;;;;;2.00;2.00;;;;;9.62;50.08;100946.84;6249983;22;45195;-77
2023/03/16 06:44:57;;;;;;;;;4.00;4.00;;;;;9.56;50.21;100928.31;6277086;22;45450;-78
2023/03/16 06:47:23;;;;;;;;;4.00;3.50;;;;;9.59;50.05;100933.59;6276214;22;46292;-78
2023/03/16 06:49:50;;;;;;;;;7.00;4.00;;;;;9.67;50.64;100943.16;6278428;22;45113;-78
2023/03/16 06:52:16;;;;;;;;;3.25;2.75;;;;;9.66;50.23;100944.97;6278489;22;45290;-78
2023/03/16 06:54:41;;;;;;;;;4.00;2.75;;;;;9.62;50.80;100930.84;6277766;22;45182;-78
2023/03/16 06:57:07;;;;;;;;;2.00;2.00;;;;;9.66;50.25;100938.78;6274585;22;49445;-78
2023/03/16 06:59:33;;;;;;;;;5.00;4.25;;;;;9.66;50.29;100934.31;6277679;22;45356;-77
2023/03/16 07:01:58;;;;;;;;;4.00;2.25;;;;;9.70;50.23;100935.97;6279567;22;45298;-78
2023/03/16 07:04:23;;;;;;;;;3.00;1.75;;;;;9.60;50.35;100919.31;6278513;22;45235;-77
2023/03/16 07:06:49;;;;;;;;;2.25;2.25;;;;;9.68;49.90;100926.28;6278298;22;45165;-78
2023/03/16 07:09:14;;;;;;;;;2.50;1.00;;;;;9.71;49.99;100928.88;6248249;22;46222;-78
2023/03/16 07:11:40;;;;;;;;;1.25;1.25;;;;;9.56;49.56;100904.34;6250726;22;45200;-78
2023/03/16 07:14:06;;;;;;;;;3.25;3.00;;;;;9.72;49.58;100922.59;6277051;22;45398;-79
2023/03/16 07:16:31;;;;;;;;;2.75;2.00;;;;;9.66;49.78;100912.13;6277928;22;45175;-78
2023/03/16 07:18:57;;;;;;;;;3.00;2.25;;;;;9.68;49.80;100918.28;6277918;22;45187;-78
2023/03/16 07:21:22;;;;;;;;;0.75;0.50;;;;;9.51;49.15;100898.25;6278546;22;45200;-78
2023/03/16 07:23:48;;;;;;;;;2.00;1.00;;;;;9.74;49.67;100927.00;6277948;22;45263;-78
2023/03/16 07:26:13;;;;;;;;;3.50;1.50;;;;;9.62;49.61;100909.53;6248966;22;47287;-78
2023/03/16 07:28:39;;;;;;;;;1.50;1.00;;;;;9.75;49.29;100923.38;6276118;22;45215;-78
2023/03/16 07:31:05;;;;;;;;;1.00;1.00;;;;;9.60;49.24;100898.00;6277662;22;45867;-78
2023/03/16 07:33:32;;;;;;;;;1.00;1.00;;;;;9.58;49.38;100899.84;6277910;22;45281;-78
2023/03/16 07:35:57;;;;;;;;;3.00;2.00;;;;;9.68;48.83;100904.94;6276683;22;45184;-78
2023/03/16 07:38:22;;;;;;;;;2.00;1.00;;;;;9.72;49.42;100914.59;6278695;22;45256;-78
2023/03/16 07:40:48;;;;;;;;;1.00;1.00;;;;;9.71;49.25;100921.72;6278187;22;45613;-78
2023/03/16 07:43:14;;;;;;;;;2.00;1.25;;;;;9.64;48.97;100901.50;6277510;22;45285;-78
2023/03/16 07:45:39;;;;;;;;;2.75;2.75;;;;;9.59;49.30;100890.94;6278421;22;45779;-78
2023/03/16 07:48:04;;;;;;;;;2.00;1.00;;;;;9.49;49.40;100873.44;6250907;22;45307;-78
2023/03/16 07:50:30;;;;;;;;;4.00;3.00;;;;;9.66;49.59;100896.13;6275302;22;45130;-78
2023/03/16 07:52:55;;;;;;;;;3.00;2.50;;;;;9.69;49.54;100912.00;6276388;22;45183;-79
2023/03/16 07:55:20;;;;;;;;;2.00;2.00;;;;;9.70;49.70;100919.09;6276660;22;45215;-78
2023/03/16 07:57:49;;;;;;;;;1.25;1.00;;;;;9.74;49.51;100920.75;6249288;22;45981;-78
2023/03/16 08:00:14;;;;;;;;;3.00;1.00;;;;;9.75;49.82;100926.06;6277735;22;45394;-78
2023/03/16 08:02:40;;;;;;;;;1.00;1.00;;;;;9.77;49.64;100907.34;6249913;22;45355;-78
2023/03/16 08:05:09;;;;;;;;;1.25;1.25;;;;;9.74;49.84;100899.44;6270226;22;45459;-78
2023/03/16 08:07:34;;;;;;;;;2.00;2.00;;;;;9.81;49.61;100907.25;6275973;22;45322;-78
2023/03/16 08:10:00;;;;;;;;;3.00;2.00;;;;;9.81;49.95;100901.91;6273076;22;45188;-78
2023/03/16 08:12:25;;;;;;;;;2.50;2.50;;;;;9.89;49.91;100909.72;6275070;22;45202;-78
2023/03/16 08:14:50;;;;;;;;;1.50;1.50;;;;;9.94;50.20;100918.47;6276493;22;45240;-78
2023/03/16 08:17:16;;;;;;;;;1.50;1.50;;;;;9.92;49.52;100911.41;6276560;22;45258;-78
2023/03/16 08:19:42;;;;;;;;;2.00;2.00;;;;;9.90;49.46;100895.44;6248802;22;45168;-79
2023/03/16 08:22:07;;;;;;;;;1.00;1.00;;;;;10.04;49.52;100918.19;6248097;22;45847;-76
2023/03/16 08:24:33;;;;;;;;;1.25;1.25;;;;;10.08;49.12;100920.75;6274221;22;47040;-77
2023/03/16 08:26:59;;;;;;;;;3.25;2.25;;;;;10.10;49.78;100921.56;6276521;22;45145;-77
2023/03/16 08:29:25;;;;;;;;;2.75;2.50;;;;;10.09;49.03;100914.50;6276033;22;45304;-76
2023/03/16 08:31:55;;;;;;;;;0.25;0.25;;;;;10.11;49.33;100911.78;6275615;22;45267;-76
2023/03/16 08:34:21;;;;;;;;;1.00;1.00;;;;;10.10;49.10;100910.91;6263494;22;46072;-76
2023/03/16 08:36:46;;;;;;;;;2.75;2.00;;;;;10.06;49.16;100903.91;6247902;22;45178;-77
2023/03/16 08:39:12;;;;;;;;;2.75;1.00;;;;;10.12;49.19;100908.19;6274502;22;45580;-77
2023/03/16 08:41:39;;;;;;;;;1.00;1.00;;;;;10.19;49.14;100917.78;6274318;22;45373;-77
2023/03/16 08:44:06;;;;;;;;;2.00;1.50;;;;;10.18;49.33;100905.38;6246418;22;48109;-77
2023/03/16 08:46:33;;;;;;;;;2.00;1.75;;;;;10.28;49.18;100920.19;6275732;22;45284;-76
2023/03/16 08:48:58;;;;;;;;;1.75;1.25;;;;;10.33;48.81;100912.97;6246123;22;45370;-76
2023/03/16 08:51:24;;;;;;;;;1.75;1.75;;;;;10.33;49.08;100901.41;6273424;22;45326;-76
2023/03/16 08:53:49;;;;;;;;;2.00;2.00;;;;;10.37;48.49;100903.97;6274900;22;46019;-76
2023/03/16 08:56:14;;;;;;;;;2.25;2.25;;;;;10.41;49.23;100899.41;6275158;22;45235;-77
2023/03/16 08:58:44;;;;;;;;;2.00;2.00;;;;;10.44;49.47;100904.66;6275236;22;45288;-76
2023/03/16 09:01:12;;;;;;;;;3.00;2.00;;;;;10.53;49.36;100906.19;6247954;22;45402;-76
2023/03/16 09:03:39;;;;;;;;;2.00;1.00;;;;;10.56;48.71;100904.28;6273801;22;45326;-76
2023/03/16 09:06:06;;;;;;;;;2.25;1.50;;;;;10.63;48.96;100912.97;6270884;22;45276;-76
2023/03/16 09:08:32;;;;;;;;;4.25;1.00;;;;;10.67;48.67;100916.44;6270969;22;45393;-77
2023/03/16 09:11:04;;;;;;;;;2.00;2.00;;;;;10.68;49.05;100908.38;6247824;22;45721;-76
2023/03/16 09:13:32;;;;;;;;;2.50;1.75;;;;;10.78;48.77;100914.31;6273393;22;46706;-76
2023/03/16 09:15:58;;;;;;;;;4.00;2.00;;;;;10.82;48.89;100901.75;6275624;22;45189;-77
2023/03/16 09:18:25;;;;;;;;;2.50;2.50;;;;;10.75;48.96;100869.03;6267486;22;45403;-76
2023/03/16 09:21:04;;;;;;;;;2.00;1.25;;;;;10.96;48.76;100899.53;6242028;22;45359;-77
2023/03/16 09:23:31;;;;;;;;;2.00;2.00;;;;;11.01;49.06;100889.56;6243747;22;47133;-76
2023/03/16 09:25:58;;;;;;;;;2.00;1.50;;;;;11.10;49.10;100891.06;6244349;22;45625;-77
2023/03/16 09:28:26;;;;;;;;;2.00;2.00;;;;;11.15;48.61;100877.56;6244509;22;45308;-77
2023/03/16 09:30:51;;;;;;;;;1.00;1.00;;;;;11.25;48.87;100879.00;6241527;22;45461;-77
2023/03/16 09:33:17;;;;;;;;;4.25;2.00;;;;;11.28;48.22;100869.09;6237587;22;46239;-77
2023/03/16 09:35:43;;;;;;;;;3.25;1.50;;;;;11.36;48.37;100866.16;6240025;22;45202;-77
2023/03/16 09:38:09;;;;;;;;;1.00;1.00;;;;;11.41;49.00;100871.34;6237179;22;45284;-77
2023/03/16 09:40:36;;;;;;;;;1.25;1.25;;;;;11.49;48.69;100871.94;6243223;22;45457;-77
2023/03/16 09:43:23;;;;;;;;;0.75;0.00;;;;;11.57;48.34;100869.03;6243360;22;45780;-77
2023/03/16 09:45:58;;;;;;;;;2.00;1.75;;;;;11.61;48.34;100870.66;6243368;22;45211;-77
2023/03/16 09:48:25;;;;;;;;;1.75;1.75;;;;;11.63;48.06;100863.47;6245307;22;45288;-77
2023/03/16 09:50:54;;;;;;;;;3.00;1.50;;;;;11.74;48.06;100860.41;6245516;22;45461;-77
2023/03/16 09:53:35;;;;;;;;;4.75;3.00;;;;;11.80;48.64;100863.75;6243804;22;47260;-77
2023/03/16 09:56:15;;;;;;;;;3.00;1.50;;;;;11.87;48.07;100857.25;6240144;22;45503;-77
2023/03/16 09:58:40;;;;;;;;;7.75;6.75;;;;;11.93;47.89;100856.19;6243822;22;45225;-75
2023/03/16 10:01:19;;;;;;;;;3.00;2.00;;;;;11.99;47.91;100855.09;6244103;22;45578;-77
2023/03/16 10:04:02;;;;;;;;;1.25;1.25;;;;;12.07;47.58;100852.16;6243613;22;45274;-77
2023/03/16 10:06:28;;;;;;;;;4.50;2.00;;;;;12.06;47.74;100843.22;6245646;22;45299;-77
2023/03/16 10:09:21;;;;;;;;;2.00;2.00;;;;;12.15;47.43;100855.41;6244297;22;45187;-76
2023/03/16 10:11:51;;;;;;;;;2.00;2.00;;;;;12.12;47.46;100840.31;6244782;22;45210;-76
2023/03/16 10:14:50;;;;;;;;;1.75;1.50;;;;;12.16;46.95;100825.94;6241651;22;45615;-76
2023/03/16 10:17:25;;;;;;;;;2.00;2.00;;;;;12.28;47.40;100846.00;6256269;22;45623;-77
2023/03/16 10:19:59;;;;;;;;;2.00;2.00;;;;;12.33;47.39;100843.13;6275921;22;45339;-77
2023/03/16 10:22:31;;;;;;;;;2.00;2.00;;;;;12.40;46.98;100847.34;6273404;22;45302;-76
2023/03/16 10:25:28;;;;;;;;;3.00;2.00;;;;;12.46;47.25;100839.03;6275166;22;45405;-76
2023/03/16 10:27:53;;;;;;;;;2.00;2.00;;;;;12.53;47.24;100831.63;6274953;22;45727;-76
2023/03/16 10:30:29;;;;;;;;;3.50;2.50;;;;;12.60;47.65;100847.41;6275620;22;45222;-76
2023/03/16 10:32:59;;;;;;;;;4.75;4.00;;;;;12.65;47.48;100833.84;6275850;22;45239;-77
2023/03/16 10:35:45;;;;;;;;;1.25;1.25;;;;;12.48;47.12;100780.09;6246159;22;48329;-76
2023/03/16 10:38:48;;;;;;;;;2.00;2.00;;;;;12.83;47.14;100823.31;6275907;22;45274;-76
2023/03/16 10:41:16;;;;;;;;;5.50;4.50;;;;;12.91;47.07;100823.88;6264523;22;45369;-77
2023/03/16 10:43:42;;;;;;;;;3.50;2.75;;;;;12.96;47.15;100824.56;6247319;22;45987;-76
2023/03/16 10:46:10;;;;;;;;;4.75;4.00;;;;;13.03;47.09;100820.72;6275217;22;45208;-77
2023/03/16 10:48:37;;;;;;;;;4.00;2.00;;;;;13.08;46.98;100823.19;6247514;22;45785;-77
2023/03/16 10:51:07;;;;;;;;;2.00;2.00;;;;;13.10;46.57;100814.16;6275209;22;45240;-77
2023/03/16 10:53:37;;;;;;;;;3.00;3.00;;;;;13.18;46.63;100821.00;6273352;22;45659;-77
2023/03/16 10:56:19;;;;;;;;;2.50;0.00;;;;;13.13;46.77;100795.28;6274470;22;45230;-77
2023/03/16 10:58:45;;;;;;;;;0.75;0.75;;;;;13.25;46.39;100804.59;6247273;22;45461;-77
2023/03/16 11:01:30;;;;;;;;;1.25;1.25;;;;;13.37;46.90;100799.69;6274285;22;45298;-77
2023/03/16 11:03:57;;;;;;;;;4.00;2.50;;;;;13.40;46.59;100794.19;6246603;22;45173;-75
2023/03/16 11:06:29;;;;;;;;;1.00;1.00;;;;;13.49;46.11;100789.28;6274909;22;46068;-78
2023/03/16 11:09:04;;;;;;;;;1.75;1.00;;;;;13.57;46.11;100788.09;6246112;22;45852;-78
2023/03/16 11:11:31;;;;;;;;;4.00;2.00;;;;;13.62;46.04;100792.31;6274904;22;45353;-77
2023/03/16 11:13:59;;;;;;;;;3.00;2.00;;;;;13.69;46.11;100790.22;6273635;22;46219;-77
2023/03/16 11:16:42;;;;;;;;;1.00;1.00;;;;;13.77;46.08;100784.53;6274375;22;45629;-77
2023/03/16 11:19:30;;;;;;;;;4.50;3.25;;;;;13.73;45.71;100770.38;6276063;22;45197;-77
2023/03/16 11:22:01;;;;;;;;;2.75;2.00;;;;;13.92;45.40;100774.91;6274966;22;45613;-78
2023/03/16 11:24:36;;;;;;;;;2.00;2.00;;;;;13.99;45.53;100774.56;6274619;22;45276;-77
2023/03/16 11:27:07;;;;;;;;;3.50;1.50;;;;;14.05;45.62;100763.53;6275649;22;45251;-77
2023/03/16 11:30:04;;;;;;;;;2.75;2.00;;;;;14.18;44.32;100760.28;6274519;22;45286;-77
2023/03/16 11:32:35;;;;;;;;;2.00;2.00;;;;;14.18;45.19;100737.00;6273213;22;45369;-77